sensor_id;sensor_type;location;lat;lon;timestamp;temperature;humidity
18189;DHT22;9219;50.396;8.546;2023-04-15T00:01:29;10.60;99.90
18189;DHT22;9219;50.396;8.546;2023-04-15T00:03:59;10.60;99.90
18189;DHT22;9219;50.396;8.546;2023-04-15T00:06:27;10.60;99.90
18189;DHT22;9219;50.396;8.546;2023-04-15T00:11:36;10.60;99.90
18189;DHT22;9219;50.396;8.546;2023-04-15T00:14:04;10.60;99.90
18189;DHT22;9219;50.396;8.546;2023-04-15T00:16:32;10.50;99.90
18189;DHT22;9219;50.396;8.546;2023-04-15T00:19:00;10.40;99.90
18189;DHT22;9219;50.396;8.546;2023-04-15T00:21:31;10.40;99.90
18189;DHT22;9219;50.396;8.546;2023-04-15T00:23:58;10.40;99.90
18189;DHT22;9219;50.396;8.546;2023-04-15T00:26:26;10.30;99.90
18189;DHT22;9219;50.396;8.546;2023-04-15T00:32:20;10.20;99.90
18189;DHT22;9219;50.396;8.546;2023-04-15T00:34:49;10.00;99.90
18189;DHT22;9219;50.396;8.546;2023-04-15T00:37:16;10.00;99.90
18189;DHT22;9219;50.396;8.546;2023-04-15T00:39:44;10.00;99.90
18189;DHT22;9219;50.396;8.546;2023-04-15T00:42:12;9.90;99.90
18189;DHT22;9219;50.396;8.546;2023-04-15T00:44:40;10.00;99.90
18189;DHT22;9219;50.396;8.546;2023-04-15T00:47:08;10.00;99.90
18189;DHT22;9219;50.396;8.546;2023-04-15T00:49:36;9.70;99.90
18189;DHT22;9219;50.396;8.546;2023-04-15T00:57:27;9.80;99.90
18189;DHT22;9219;50.396;8.546;2023-04-15T00:59:56;10.00;99.90
18189;DHT22;9219;50.396;8.546;2023-04-15T01:02:23;10.00;99.90
18189;DHT22;9219;50.396;8.546;2023-04-15T01:04:51;9.80;99.90
18189;DHT22;9219;50.396;8.546;2023-04-15T01:07:18;9.80;99.90
18189;DHT22;9219;50.396;8.546;2023-04-15T01:09:47;9.90;99.90
18189;DHT22;9219;50.396;8.546;2023-04-15T01:12:15;9.80;99.90
18189;DHT22;9219;50.396;8.546;2023-04-15T01:22:24;9.80;99.90
18189;DHT22;9219;50.396;8.546;2023-04-15T01:24:56;9.80;99.90
18189;DHT22;9219;50.396;8.546;2023-04-15T01:27:26;9.90;99.90
18189;DHT22;9219;50.396;8.546;2023-04-15T01:29:53;9.90;99.90
18189;DHT22;9219;50.396;8.546;2023-04-15T01:32:21;9.80;99.90
18189;DHT22;9219;50.396;8.546;2023-04-15T01:34:49;9.70;99.90
18189;DHT22;9219;50.396;8.546;2023-04-15T01:37:17;9.70;99.90
18189;DHT22;9219;50.396;8.546;2023-04-15T01:44:49;9.80;99.90
18189;DHT22;9219;50.396;8.546;2023-04-15T01:47:17;9.60;99.90
18189;DHT22;9219;50.396;8.546;2023-04-15T01:49:45;9.70;99.90
18189;DHT22;9219;50.396;8.546;2023-04-15T01:52:14;9.70;99.90
18189;DHT22;9219;50.396;8.546;2023-04-15T01:54:42;9.70;99.90
18189;DHT22;9219;50.396;8.546;2023-04-15T01:57:09;9.70;99.90
18189;DHT22;9219;50.396;8.546;2023-04-15T01:59:36;9.70;99.90
18189;DHT22;9219;50.396;8.546;2023-04-15T02:02:05;9.60;99.90
18189;DHT22;9219;50.396;8.546;2023-04-15T02:09:48;9.60;99.90
18189;DHT22;9219;50.396;8.546;2023-04-15T02:12:15;9.70;99.90
18189;DHT22;9219;50.396;8.546;2023-04-15T02:14:42;9.80;99.90
18189;DHT22;9219;50.396;8.546;2023-04-15T02:17:09;9.60;99.90
18189;DHT22;9219;50.396;8.546;2023-04-15T02:19:37;9.40;99.90
18189;DHT22;9219;50.396;8.546;2023-04-15T02:22:04;9.30;99.90
18189;DHT22;9219;50.396;8.546;2023-04-15T02:24:32;9.30;99.90
18189;DHT22;9219;50.396;8.546;2023-04-15T02:32:04;9.50;99.90
18189;DHT22;9219;50.396;8.546;2023-04-15T02:34:32;9.40;99.90
18189;DHT22;9219;50.396;8.546;2023-04-15T02:36:59;9.50;99.90
18189;DHT22;9219;50.396;8.546;2023-04-15T02:39:26;9.50;99.90
18189;DHT22;9219;50.396;8.546;2023-04-15T02:41:54;9.60;99.90
18189;DHT22;9219;50.396;8.546;2023-04-15T02:44:24;9.60;99.90
18189;DHT22;9219;50.396;8.546;2023-04-15T02:46:52;9.60;99.90
18189;DHT22;9219;50.396;8.546;2023-04-15T02:54:24;9.50;99.90
18189;DHT22;9219;50.396;8.546;2023-04-15T02:56:54;9.50;99.90
18189;DHT22;9219;50.396;8.546;2023-04-15T02:59:21;9.30;99.90
18189;DHT22;9219;50.396;8.546;2023-04-15T03:01:48;9.30;99.90
18189;DHT22;9219;50.396;8.546;2023-04-15T03:04:16;9.30;99.90
18189;DHT22;9219;50.396;8.546;2023-04-15T03:06:43;9.30;99.90
18189;DHT22;9219;50.396;8.546;2023-04-15T03:09:11;9.40;99.90
18189;DHT22;9219;50.396;8.546;2023-04-15T03:16:46;9.40;99.90
18189;DHT22;9219;50.396;8.546;2023-04-15T03:19:15;9.40;99.90
18189;DHT22;9219;50.396;8.546;2023-04-15T03:21:42;9.40;99.90
18189;DHT22;9219;50.396;8.546;2023-04-15T03:24:10;9.40;99.90
18189;DHT22;9219;50.396;8.546;2023-04-15T03:26:37;9.40;99.90
18189;DHT22;9219;50.396;8.546;2023-04-15T03:29:04;9.40;99.90
18189;DHT22;9219;50.396;8.546;2023-04-15T03:31:32;9.40;99.90
18189;DHT22;9219;50.396;8.546;2023-04-15T03:39:04;9.50;99.90
18189;DHT22;9219;50.396;8.546;2023-04-15T03:41:31;9.40;99.90
18189;DHT22;9219;50.396;8.546;2023-04-15T03:43:59;9.00;99.90
18189;DHT22;9219;50.396;8.546;2023-04-15T03:46:26;9.00;99.90
18189;DHT22;9219;50.396;8.546;2023-04-15T03:48:54;8.90;99.90
18189;DHT22;9219;50.396;8.546;2023-04-15T03:51:21;8.90;99.90
18189;DHT22;9219;50.396;8.546;2023-04-15T03:53:48;8.80;99.90
18189;DHT22;9219;50.396;8.546;2023-04-15T04:01:21;8.20;99.90
18189;DHT22;9219;50.396;8.546;2023-04-15T04:03:48;7.90;99.90
18189;DHT22;9219;50.396;8.546;2023-04-15T04:06:16;7.70;99.90
18189;DHT22;9219;50.396;8.546;2023-04-15T04:08:46;7.60;99.90
18189;DHT22;9219;50.396;8.546;2023-04-15T04:11:13;7.80;99.90
18189;DHT22;9219;50.396;8.546;2023-04-15T04:13:41;7.80;99.90
18189;DHT22;9219;50.396;8.546;2023-04-15T04:16:08;7.80;99.90
18189;DHT22;9219;50.396;8.546;2023-04-15T04:23:40;7.70;99.90
18189;DHT22;9219;50.396;8.546;2023-04-15T04:26:08;7.60;99.90
18189;DHT22;9219;50.396;8.546;2023-04-15T04:28:35;7.80;99.90
18189;DHT22;9219;50.396;8.546;2023-04-15T04:31:02;8.10;99.90
18189;DHT22;9219;50.396;8.546;2023-04-15T04:33:29;8.40;99.90
18189;DHT22;9219;50.396;8.546;2023-04-15T04:35:57;8.20;99.90
18189;DHT22;9219;50.396;8.546;2023-04-15T04:38:24;8.00;99.90
18189;DHT22;9219;50.396;8.546;2023-04-15T04:45:51;8.20;99.90
18189;DHT22;9219;50.396;8.546;2023-04-15T04:48:19;8.60;99.90
18189;DHT22;9219;50.396;8.546;2023-04-15T04:50:46;8.60;99.90
18189;DHT22;9219;50.396;8.546;2023-04-15T04:53:14;8.70;99.90
18189;DHT22;9219;50.396;8.546;2023-04-15T04:55:43;8.60;99.90
18189;DHT22;9219;50.396;8.546;2023-04-15T04:58:11;8.70;99.90
18189;DHT22;9219;50.396;8.546;2023-04-15T05:00:39;8.70;99.90
18189;DHT22;9219;50.396;8.546;2023-04-15T05:08:11;8.50;99.90
18189;DHT22;9219;50.396;8.546;2023-04-15T05:10:39;8.20;99.90
18189;DHT22;9219;50.396;8.546;2023-04-15T05:13:06;8.00;99.90
18189;DHT22;9219;50.396;8.546;2023-04-15T05:15:33;8.00;99.90
18189;DHT22;9219;50.396;8.546;2023-04-15T05:18:02;7.50;99.90
18189;DHT22;9219;50.396;8.546;2023-04-15T05:20:29;7.30;99.90
18189;DHT22;9219;50.396;8.546;2023-04-15T05:22:57;7.40;99.90
18189;DHT22;9219;50.396;8.546;2023-04-15T05:28:04;7.50;99.90
18189;DHT22;9219;50.396;8.546;2023-04-15T05:30:31;7.00;99.90
18189;DHT22;9219;50.396;8.546;2023-04-15T05:32:59;6.80;99.90
18189;DHT22;9219;50.396;8.546;2023-04-15T05:35:29;6.80;99.90
18189;DHT22;9219;50.396;8.546;2023-04-15T05:37:57;6.70;99.90
18189;DHT22;9219;50.396;8.546;2023-04-15T05:40:24;6.50;99.90
18189;DHT22;9219;50.396;8.546;2023-04-15T05:42:52;6.70;99.90
18189;DHT22;9219;50.396;8.546;2023-04-15T05:50:24;7.00;99.90
18189;DHT22;9219;50.396;8.546;2023-04-15T05:52:51;7.00;99.90
18189;DHT22;9219;50.396;8.546;2023-04-15T05:55:44;6.90;99.90
18189;DHT22;9219;50.396;8.546;2023-04-15T05:58:16;6.50;99.90
18189;DHT22;9219;50.396;8.546;2023-04-15T06:00:43;6.70;99.90
18189;DHT22;9219;50.396;8.546;2023-04-15T06:03:11;7.10;99.90
18189;DHT22;9219;50.396;8.546;2023-04-15T06:05:40;6.50;99.90
18189;DHT22;9219;50.396;8.546;2023-04-15T06:13:13;7.10;99.90
18189;DHT22;9219;50.396;8.546;2023-04-15T06:15:40;6.20;99.90
18189;DHT22;9219;50.396;8.546;2023-04-15T06:18:07;6.10;99.90
18189;DHT22;9219;50.396;8.546;2023-04-15T06:20:34;6.10;99.90
18189;DHT22;9219;50.396;8.546;2023-04-15T06:23:02;6.00;99.90
18189;DHT22;9219;50.396;8.546;2023-04-15T06:25:29;6.00;99.90
18189;DHT22;9219;50.396;8.546;2023-04-15T06:27:56;6.10;99.90
18189;DHT22;9219;50.396;8.546;2023-04-15T06:30:26;6.20;99.90
18189;DHT22;9219;50.396;8.546;2023-04-15T06:33:10;6.30;99.90
18189;DHT22;9219;50.396;8.546;2023-04-15T06:35:38;6.40;99.90
18189;DHT22;9219;50.396;8.546;2023-04-15T06:38:05;6.40;99.90
18189;DHT22;9219;50.396;8.546;2023-04-15T06:40:35;6.40;99.90
18189;DHT22;9219;50.396;8.546;2023-04-15T06:43:02;6.40;99.90
18189;DHT22;9219;50.396;8.546;2023-04-15T06:45:30;6.50;99.90
18189;DHT22;9219;50.396;8.546;2023-04-15T06:47:57;6.60;99.90
18189;DHT22;9219;50.396;8.546;2023-04-15T06:55:29;6.70;99.90
18189;DHT22;9219;50.396;8.546;2023-04-15T06:57:57;6.70;99.90
18189;DHT22;9219;50.396;8.546;2023-04-15T07:00:25;7.00;99.90
18189;DHT22;9219;50.396;8.546;2023-04-15T07:02:53;6.90;99.90
18189;DHT22;9219;50.396;8.546;2023-04-15T07:05:22;7.00;99.90
18189;DHT22;9219;50.396;8.546;2023-04-15T07:07:50;7.10;99.90
18189;DHT22;9219;50.396;8.546;2023-04-15T07:10:18;7.10;99.90
18189;DHT22;9219;50.396;8.546;2023-04-15T07:17:49;7.30;99.90
18189;DHT22;9219;50.396;8.546;2023-04-15T07:20:16;7.40;99.90
18189;DHT22;9219;50.396;8.546;2023-04-15T07:22:44;7.50;99.90
18189;DHT22;9219;50.396;8.546;2023-04-15T07:25:11;7.60;99.90
18189;DHT22;9219;50.396;8.546;2023-04-15T07:27:39;7.50;99.90
18189;DHT22;9219;50.396;8.546;2023-04-15T07:30:07;7.50;99.90
18189;DHT22;9219;50.396;8.546;2023-04-15T07:32:35;7.70;99.90
18189;DHT22;9219;50.396;8.546;2023-04-15T07:40:09;7.90;99.90
18189;DHT22;9219;50.396;8.546;2023-04-15T07:42:37;8.00;99.90
18189;DHT22;9219;50.396;8.546;2023-04-15T07:45:07;8.00;99.90
18189;DHT22;9219;50.396;8.546;2023-04-15T07:47:36;8.00;99.90
18189;DHT22;9219;50.396;8.546;2023-04-15T07:50:04;8.00;99.90
18189;DHT22;9219;50.396;8.546;2023-04-15T07:52:32;8.10;99.90
18189;DHT22;9219;50.396;8.546;2023-04-15T07:55:05;8.20;99.90
18189;DHT22;9219;50.396;8.546;2023-04-15T08:02:39;8.10;99.90
18189;DHT22;9219;50.396;8.546;2023-04-15T08:05:07;8.30;99.90
18189;DHT22;9219;50.396;8.546;2023-04-15T08:07:35;8.30;99.90
18189;DHT22;9219;50.396;8.546;2023-04-15T08:10:03;8.50;99.90
18189;DHT22;9219;50.396;8.546;2023-04-15T08:12:30;8.40;99.90
18189;DHT22;9219;50.396;8.546;2023-04-15T08:14:58;8.70;99.90
18189;DHT22;9219;50.396;8.546;2023-04-15T08:17:26;8.90;99.90
18189;DHT22;9219;50.396;8.546;2023-04-15T08:19:55;8.90;99.90
18189;DHT22;9219;50.396;8.546;2023-04-15T08:27:27;8.90;99.90
18189;DHT22;9219;50.396;8.546;2023-04-15T08:29:54;8.50;99.90
18189;DHT22;9219;50.396;8.546;2023-04-15T08:32:22;8.50;99.90
18189;DHT22;9219;50.396;8.546;2023-04-15T08:34:51;8.40;99.90
18189;DHT22;9219;50.396;8.546;2023-04-15T08:37:18;8.60;99.90
18189;DHT22;9219;50.396;8.546;2023-04-15T08:39:46;8.80;99.90
18189;DHT22;9219;50.396;8.546;2023-04-15T08:42:16;8.90;99.90
18189;DHT22;9219;50.396;8.546;2023-04-15T08:49:53;9.00;99.90
18189;DHT22;9219;50.396;8.546;2023-04-15T08:52:25;8.80;99.90
18189;DHT22;9219;50.396;8.546;2023-04-15T08:54:56;8.80;99.90
18189;DHT22;9219;50.396;8.546;2023-04-15T08:57:25;8.80;99.90
18189;DHT22;9219;50.396;8.546;2023-04-15T08:59:54;8.80;99.90
18189;DHT22;9219;50.396;8.546;2023-04-15T09:02:23;9.00;99.90
18189;DHT22;9219;50.396;8.546;2023-04-15T09:04:52;8.90;99.90
18189;DHT22;9219;50.396;8.546;2023-04-15T09:12:25;8.80;99.90
18189;DHT22;9219;50.396;8.546;2023-04-15T09:14:58;8.90;99.90
18189;DHT22;9219;50.396;8.546;2023-04-15T09:17:25;8.60;99.90
18189;DHT22;9219;50.396;8.546;2023-04-15T09:20:07;8.80;99.90
18189;DHT22;9219;50.396;8.546;2023-04-15T09:22:35;8.70;99.90
18189;DHT22;9219;50.396;8.546;2023-04-15T09:25:04;8.60;99.90
18189;DHT22;9219;50.396;8.546;2023-04-15T09:27:56;8.70;99.90
18189;DHT22;9219;50.396;8.546;2023-04-15T09:35:28;8.90;99.90
18189;DHT22;9219;50.396;8.546;2023-04-15T09:38:02;9.30;99.90
18189;DHT22;9219;50.396;8.546;2023-04-15T09:40:33;9.20;99.90
18189;DHT22;9219;50.396;8.546;2023-04-15T09:43:04;9.20;99.90
18189;DHT22;9219;50.396;8.546;2023-04-15T09:45:33;9.30;99.90
18189;DHT22;9219;50.396;8.546;2023-04-15T09:48:15;9.10;99.90
18189;DHT22;9219;50.396;8.546;2023-04-15T09:50:44;9.10;99.90
18189;DHT22;9219;50.396;8.546;2023-04-15T09:58:18;8.90;99.90
18189;DHT22;9219;50.396;8.546;2023-04-15T10:00:46;8.80;99.90
18189;DHT22;9219;50.396;8.546;2023-04-15T10:03:17;8.70;99.90
18189;DHT22;9219;50.396;8.546;2023-04-15T10:05:47;8.90;99.90
18189;DHT22;9219;50.396;8.546;2023-04-15T10:08:17;9.00;99.90
18189;DHT22;9219;50.396;8.546;2023-04-15T10:10:45;9.20;99.90
18189;DHT22;9219;50.396;8.546;2023-04-15T10:13:16;9.10;99.90
18189;DHT22;9219;50.396;8.546;2023-04-15T10:20:49;9.30;99.90
18189;DHT22;9219;50.396;8.546;2023-04-15T10:23:17;9.30;99.90
18189;DHT22;9219;50.396;8.546;2023-04-15T10:25:46;9.70;99.90
18189;DHT22;9219;50.396;8.546;2023-04-15T10:28:15;9.60;99.90
18189;DHT22;9219;50.396;8.546;2023-04-15T10:30:43;9.30;99.90
18189;DHT22;9219;50.396;8.546;2023-04-15T10:33:10;9.30;99.90
18189;DHT22;9219;50.396;8.546;2023-04-15T10:35:38;9.30;99.90
18189;DHT22;9219;50.396;8.546;2023-04-15T10:43:24;9.80;99.90
18189;DHT22;9219;50.396;8.546;2023-04-15T10:45:52;9.90;99.90
18189;DHT22;9219;50.396;8.546;2023-04-15T10:48:20;10.00;99.90
18189;DHT22;9219;50.396;8.546;2023-04-15T10:50:55;9.90;99.90
18189;DHT22;9219;50.396;8.546;2023-04-15T10:53:27;10.00;99.90
18189;DHT22;9219;50.396;8.546;2023-04-15T10:55:56;9.80;99.90
18189;DHT22;9219;50.396;8.546;2023-04-15T10:58:25;9.70;99.90
18189;DHT22;9219;50.396;8.546;2023-04-15T11:05:56;9.60;99.90
18189;DHT22;9219;50.396;8.546;2023-04-15T11:08:52;9.20;99.90
18189;DHT22;9219;50.396;8.546;2023-04-15T11:11:20;9.20;99.90
18189;DHT22;9219;50.396;8.546;2023-04-15T11:13:48;9.20;99.90
18189;DHT22;9219;50.396;8.546;2023-04-15T11:16:16;8.90;99.90
18189;DHT22;9219;50.396;8.546;2023-04-15T11:18:52;9.00;99.90
18189;DHT22;9219;50.396;8.546;2023-04-15T11:21:24;8.90;99.90
18189;DHT22;9219;50.396;8.546;2023-04-15T11:26:32;8.80;99.90
18189;DHT22;9219;50.396;8.546;2023-04-15T11:29:00;8.80;99.90
18189;DHT22;9219;50.396;8.546;2023-04-15T11:31:28;8.70;99.90
18189;DHT22;9219;50.396;8.546;2023-04-15T11:33:56;8.70;99.90
18189;DHT22;9219;50.396;8.546;2023-04-15T11:36:25;8.90;99.90
18189;DHT22;9219;50.396;8.546;2023-04-15T11:38:53;8.80;99.90
18189;DHT22;9219;50.396;8.546;2023-04-15T11:41:20;8.50;99.90
18189;DHT22;9219;50.396;8.546;2023-04-15T11:48:52;8.40;99.90
18189;DHT22;9219;50.396;8.546;2023-04-15T11:51:20;8.20;99.90
18189;DHT22;9219;50.396;8.546;2023-04-15T11:53:49;8.00;99.90
18189;DHT22;9219;50.396;8.546;2023-04-15T11:56:21;8.00;99.90
18189;DHT22;9219;50.396;8.546;2023-04-15T11:58:55;7.80;99.90
18189;DHT22;9219;50.396;8.546;2023-04-15T12:01:30;7.80;99.90
18189;DHT22;9219;50.396;8.546;2023-04-15T12:04:01;7.70;99.90
18189;DHT22;9219;50.396;8.546;2023-04-15T12:11:45;7.50;99.90
18189;DHT22;9219;50.396;8.546;2023-04-15T12:14:20;7.30;99.90
18189;DHT22;9219;50.396;8.546;2023-04-15T12:16:49;7.20;99.90
18189;DHT22;9219;50.396;8.546;2023-04-15T12:19:28;7.10;99.90
18189;DHT22;9219;50.396;8.546;2023-04-15T12:22:00;7.00;99.90
18189;DHT22;9219;50.396;8.546;2023-04-15T12:24:38;7.00;99.90
18189;DHT22;9219;50.396;8.546;2023-04-15T12:27:11;6.90;99.90
18189;DHT22;9219;50.396;8.546;2023-04-15T12:34:52;7.00;99.90
18189;DHT22;9219;50.396;8.546;2023-04-15T12:37:23;6.90;99.90
18189;DHT22;9219;50.396;8.546;2023-04-15T12:39:51;6.80;99.90
18189;DHT22;9219;50.396;8.546;2023-04-15T12:42:19;6.90;99.90
18189;DHT22;9219;50.396;8.546;2023-04-15T12:44:47;7.20;99.90
18189;DHT22;9219;50.396;8.546;2023-04-15T12:47:25;7.30;99.90
18189;DHT22;9219;50.396;8.546;2023-04-15T12:50:04;7.30;99.90
18189;DHT22;9219;50.396;8.546;2023-04-15T12:52:34;7.20;99.90
18189;DHT22;9219;50.396;8.546;2023-04-15T12:58:40;7.30;99.90
18189;DHT22;9219;50.396;8.546;2023-04-15T13:01:11;7.40;99.90
18189;DHT22;9219;50.396;8.546;2023-04-15T13:03:39;7.20;99.90
18189;DHT22;9219;50.396;8.546;2023-04-15T13:06:07;7.20;99.90
18189;DHT22;9219;50.396;8.546;2023-04-15T13:08:34;7.20;99.90
18189;DHT22;9219;50.396;8.546;2023-04-15T13:11:06;7.20;99.90
18189;DHT22;9219;50.396;8.546;2023-04-15T13:13:33;7.40;99.90
18189;DHT22;9219;50.396;8.546;2023-04-15T13:18:56;7.50;99.90
18189;DHT22;9219;50.396;8.546;2023-04-15T13:21:24;7.50;99.90
18189;DHT22;9219;50.396;8.546;2023-04-15T13:23:52;7.60;99.90
18189;DHT22;9219;50.396;8.546;2023-04-15T13:26:20;7.70;99.90
18189;DHT22;9219;50.396;8.546;2023-04-15T13:28:48;7.50;99.90
18189;DHT22;9219;50.396;8.546;2023-04-15T13:31:16;7.50;99.90
18189;DHT22;9219;50.396;8.546;2023-04-15T13:33:43;7.40;99.90
18189;DHT22;9219;50.396;8.546;2023-04-15T13:41:23;7.40;99.90
18189;DHT22;9219;50.396;8.546;2023-04-15T13:43:51;7.20;99.90
18189;DHT22;9219;50.396;8.546;2023-04-15T13:46:18;7.20;99.90
18189;DHT22;9219;50.396;8.546;2023-04-15T13:48:45;7.00;99.90
18189;DHT22;9219;50.396;8.546;2023-04-15T13:51:15;7.00;99.90
18189;DHT22;9219;50.396;8.546;2023-04-15T13:53:43;7.00;99.90
18189;DHT22;9219;50.396;8.546;2023-04-15T13:56:11;6.90;99.90
18189;DHT22;9219;50.396;8.546;2023-04-15T14:03:43;7.10;99.90
18189;DHT22;9219;50.396;8.546;2023-04-15T14:06:11;7.10;99.90
18189;DHT22;9219;50.396;8.546;2023-04-15T14:08:38;7.00;99.90
18189;DHT22;9219;50.396;8.546;2023-04-15T14:11:10;6.90;99.90
18189;DHT22;9219;50.396;8.546;2023-04-15T14:13:39;6.70;99.90
18189;DHT22;9219;50.396;8.546;2023-04-15T14:16:09;6.70;99.90
18189;DHT22;9219;50.396;8.546;2023-04-15T14:18:36;6.70;99.90
18189;DHT22;9219;50.396;8.546;2023-04-15T14:26:23;6.80;99.90
18189;DHT22;9219;50.396;8.546;2023-04-15T14:28:51;7.00;99.90
18189;DHT22;9219;50.396;8.546;2023-04-15T14:31:18;6.90;99.90
18189;DHT22;9219;50.396;8.546;2023-04-15T14:33:48;6.70;99.90
18189;DHT22;9219;50.396;8.546;2023-04-15T14:36:18;6.70;99.90
18189;DHT22;9219;50.396;8.546;2023-04-15T14:38:49;6.70;99.90
18189;DHT22;9219;50.396;8.546;2023-04-15T14:41:16;6.90;99.90
18189;DHT22;9219;50.396;8.546;2023-04-15T14:48:54;6.80;99.90
18189;DHT22;9219;50.396;8.546;2023-04-15T14:51:22;6.90;99.90
18189;DHT22;9219;50.396;8.546;2023-04-15T14:53:50;6.80;99.90
18189;DHT22;9219;50.396;8.546;2023-04-15T14:56:17;6.80;99.90
18189;DHT22;9219;50.396;8.546;2023-04-15T14:58:44;6.60;99.90
18189;DHT22;9219;50.396;8.546;2023-04-15T15:01:12;6.80;99.90
18189;DHT22;9219;50.396;8.546;2023-04-15T15:03:41;6.70;99.90
18189;DHT22;9219;50.396;8.546;2023-04-15T15:10:34;6.80;99.90
18189;DHT22;9219;50.396;8.546;2023-04-15T15:13:14;6.70;99.90
18189;DHT22;9219;50.396;8.546;2023-04-15T15:15:42;6.80;99.90
18189;DHT22;9219;50.396;8.546;2023-04-15T15:18:10;6.70;99.90
18189;DHT22;9219;50.396;8.546;2023-04-15T15:20:37;6.70;99.90
18189;DHT22;9219;50.396;8.546;2023-04-15T15:23:05;6.90;99.90
18189;DHT22;9219;50.396;8.546;2023-04-15T15:25:33;6.80;99.90
18189;DHT22;9219;50.396;8.546;2023-04-15T15:33:01;6.60;99.90
18189;DHT22;9219;50.396;8.546;2023-04-15T15:35:29;6.80;99.90
18189;DHT22;9219;50.396;8.546;2023-04-15T15:37:57;6.80;99.90
18189;DHT22;9219;50.396;8.546;2023-04-15T15:40:25;6.80;99.90
18189;DHT22;9219;50.396;8.546;2023-04-15T15:42:53;6.90;99.90
18189;DHT22;9219;50.396;8.546;2023-04-15T15:45:20;6.90;99.90
18189;DHT22;9219;50.396;8.546;2023-04-15T15:47:48;6.80;99.90
18189;DHT22;9219;50.396;8.546;2023-04-15T15:55:20;6.70;99.90
18189;DHT22;9219;50.396;8.546;2023-04-15T15:57:48;6.70;99.90
18189;DHT22;9219;50.396;8.546;2023-04-15T16:00:16;6.90;99.90
18189;DHT22;9219;50.396;8.546;2023-04-15T16:02:44;6.90;99.90
18189;DHT22;9219;50.396;8.546;2023-04-15T16:05:14;6.80;99.90
18189;DHT22;9219;50.396;8.546;2023-04-15T16:07:41;6.90;99.90
18189;DHT22;9219;50.396;8.546;2023-04-15T16:10:09;7.00;99.90
18189;DHT22;9219;50.396;8.546;2023-04-15T16:17:47;7.00;99.90
18189;DHT22;9219;50.396;8.546;2023-04-15T16:20:15;6.90;99.90
18189;DHT22;9219;50.396;8.546;2023-04-15T16:22:43;6.90;99.90
18189;DHT22;9219;50.396;8.546;2023-04-15T16:25:10;6.90;99.90
18189;DHT22;9219;50.396;8.546;2023-04-15T16:27:38;7.00;99.90
18189;DHT22;9219;50.396;8.546;2023-04-15T16:30:09;7.00;99.90
18189;DHT22;9219;50.396;8.546;2023-04-15T16:32:39;6.80;99.90
18189;DHT22;9219;50.396;8.546;2023-04-15T16:40:11;6.80;99.90
18189;DHT22;9219;50.396;8.546;2023-04-15T16:42:43;6.80;99.90
18189;DHT22;9219;50.396;8.546;2023-04-15T16:45:22;6.90;99.90
18189;DHT22;9219;50.396;8.546;2023-04-15T16:47:49;6.90;99.90
18189;DHT22;9219;50.396;8.546;2023-04-15T16:50:17;6.80;99.90
18189;DHT22;9219;50.396;8.546;2023-04-15T16:52:48;6.90;99.90
18189;DHT22;9219;50.396;8.546;2023-04-15T16:55:16;6.80;99.90
18189;DHT22;9219;50.396;8.546;2023-04-15T17:00:29;6.90;99.90
18189;DHT22;9219;50.396;8.546;2023-04-15T17:02:57;6.80;99.90
18189;DHT22;9219;50.396;8.546;2023-04-15T17:05:25;6.90;99.90
18189;DHT22;9219;50.396;8.546;2023-04-15T17:07:52;6.80;99.90
18189;DHT22;9219;50.396;8.546;2023-04-15T17:10:20;6.70;99.90
18189;DHT22;9219;50.396;8.546;2023-04-15T17:12:47;6.80;99.90
18189;DHT22;9219;50.396;8.546;2023-04-15T17:15:17;6.90;99.90
18189;DHT22;9219;50.396;8.546;2023-04-15T17:22:53;6.80;99.90
18189;DHT22;9219;50.396;8.546;2023-04-15T17:25:22;6.70;99.90
18189;DHT22;9219;50.396;8.546;2023-04-15T17:27:49;6.70;99.90
18189;DHT22;9219;50.396;8.546;2023-04-15T17:30:24;6.70;99.90
18189;DHT22;9219;50.396;8.546;2023-04-15T17:32:54;6.60;99.90
18189;DHT22;9219;50.396;8.546;2023-04-15T17:35:22;6.60;99.90
18189;DHT22;9219;50.396;8.546;2023-04-15T17:37:52;6.70;99.90
18189;DHT22;9219;50.396;8.546;2023-04-15T17:43:01;6.70;99.90
18189;DHT22;9219;50.396;8.546;2023-04-15T17:45:29;6.70;99.90
18189;DHT22;9219;50.396;8.546;2023-04-15T17:47:59;6.60;99.90
18189;DHT22;9219;50.396;8.546;2023-04-15T17:50:35;6.60;99.90
18189;DHT22;9219;50.396;8.546;2023-04-15T17:53:05;6.70;99.90
18189;DHT22;9219;50.396;8.546;2023-04-15T17:55:35;6.60;99.90
18189;DHT22;9219;50.396;8.546;2023-04-15T17:58:03;6.70;99.90
18189;DHT22;9219;50.396;8.546;2023-04-15T18:05:31;6.70;99.90
18189;DHT22;9219;50.396;8.546;2023-04-15T18:07:59;6.80;99.90
18189;DHT22;9219;50.396;8.546;2023-04-15T18:10:26;6.70;99.90
18189;DHT22;9219;50.396;8.546;2023-04-15T18:12:54;6.70;99.90
18189;DHT22;9219;50.396;8.546;2023-04-15T18:15:22;6.80;99.90
18189;DHT22;9219;50.396;8.546;2023-04-15T18:17:49;6.70;99.90
18189;DHT22;9219;50.396;8.546;2023-04-15T18:20:17;6.90;99.90
18189;DHT22;9219;50.396;8.546;2023-04-15T18:22:47;6.80;99.90
18189;DHT22;9219;50.396;8.546;2023-04-15T18:30:23;6.70;99.90
18189;DHT22;9219;50.396;8.546;2023-04-15T18:32:51;6.70;99.90
18189;DHT22;9219;50.396;8.546;2023-04-15T18:35:18;6.70;99.90
18189;DHT22;9219;50.396;8.546;2023-04-15T18:37:47;6.60;99.90
18189;DHT22;9219;50.396;8.546;2023-04-15T18:40:16;6.60;99.90
18189;DHT22;9219;50.396;8.546;2023-04-15T18:42:44;6.70;99.90
18189;DHT22;9219;50.396;8.546;2023-04-15T18:45:11;6.80;99.90
18189;DHT22;9219;50.396;8.546;2023-04-15T18:50:18;6.80;99.90
18189;DHT22;9219;50.396;8.546;2023-04-15T18:52:46;6.70;99.90
18189;DHT22;9219;50.396;8.546;2023-04-15T18:55:16;6.60;99.90
18189;DHT22;9219;50.396;8.546;2023-04-15T18:57:45;6.70;99.90
18189;DHT22;9219;50.396;8.546;2023-04-15T19:00:14;6.70;99.90
18189;DHT22;9219;50.396;8.546;2023-04-15T19:02:42;6.70;99.90
18189;DHT22;9219;50.396;8.546;2023-04-15T19:05:09;6.60;99.90
18189;DHT22;9219;50.396;8.546;2023-04-15T19:12:44;6.70;99.90
18189;DHT22;9219;50.396;8.546;2023-04-15T19:15:12;6.70;99.90
18189;DHT22;9219;50.396;8.546;2023-04-15T19:17:44;6.60;99.90
18189;DHT22;9219;50.396;8.546;2023-04-15T19:20:12;6.70;99.90
18189;DHT22;9219;50.396;8.546;2023-04-15T19:22:39;6.70;99.90
18189;DHT22;9219;50.396;8.546;2023-04-15T19:25:07;6.70;99.90
18189;DHT22;9219;50.396;8.546;2023-04-15T19:27:35;6.60;99.90
18189;DHT22;9219;50.396;8.546;2023-04-15T19:35:10;6.70;99.90
18189;DHT22;9219;50.396;8.546;2023-04-15T19:37:37;6.70;99.90
18189;DHT22;9219;50.396;8.546;2023-04-15T19:40:06;6.70;99.90
18189;DHT22;9219;50.396;8.546;2023-04-15T19:42:34;6.80;99.90
18189;DHT22;9219;50.396;8.546;2023-04-15T19:45:03;6.80;99.90
18189;DHT22;9219;50.396;8.546;2023-04-15T19:47:32;6.90;99.90
18189;DHT22;9219;50.396;8.546;2023-04-15T19:50:04;6.80;99.90
18189;DHT22;9219;50.396;8.546;2023-04-15T19:55:27;6.80;99.90
18189;DHT22;9219;50.396;8.546;2023-04-15T19:57:55;6.90;99.90
18189;DHT22;9219;50.396;8.546;2023-04-15T20:00:22;6.90;99.90
18189;DHT22;9219;50.396;8.546;2023-04-15T20:02:50;6.90;99.90
18189;DHT22;9219;50.396;8.546;2023-04-15T20:05:19;7.00;99.90
18189;DHT22;9219;50.396;8.546;2023-04-15T20:07:47;6.90;99.90
18189;DHT22;9219;50.396;8.546;2023-04-15T20:10:17;6.70;99.90
18189;DHT22;9219;50.396;8.546;2023-04-15T20:18:38;6.80;99.90
18189;DHT22;9219;50.396;8.546;2023-04-15T20:21:05;6.70;99.90
18189;DHT22;9219;50.396;8.546;2023-04-15T20:23:33;6.60;99.90
18189;DHT22;9219;50.396;8.546;2023-04-15T20:26:06;6.70;99.90